createdAt,value
2023-05-19T04:20:52.393Z,101471.41
2023-05-19T04:23:23.645Z,101472.69
2023-05-19T04:25:54.482Z,101468.42
2023-05-19T04:28:25.841Z,101467.08
2023-05-19T04:31:14.576Z,101469.70
2023-05-19T04:33:48.290Z,101471.17
2023-05-19T04:36:22.393Z,101476.18
2023-05-19T04:39:04.111Z,101471.61
2023-05-19T04:41:35.555Z,101474.44
2023-05-19T04:44:13.151Z,101474.21
2023-05-19T04:46:43.170Z,101475.67
2023-05-19T04:49:14.878Z,101480.09
2023-05-19T04:51:56.699Z,101481.77
2023-05-19T04:54:32.441Z,101489.63
2023-05-19T04:57:01.987Z,101491.14
2023-05-19T04:59:32.611Z,101492.48
2023-05-19T05:02:04.827Z,101491.15
2023-05-19T05:04:46.747Z,101495.09
2023-05-19T05:07:17.219Z,101494.61
2023-05-19T05:09:50.585Z,101496.21
2023-05-19T05:12:24.283Z,101501.60
2023-05-19T05:14:55.351Z,101502.43
2023-05-19T05:17:32.721Z,101509.10
2023-05-19T05:20:09.028Z,101505.60
2023-05-19T05:22:49.771Z,101507.02
2023-05-19T05:25:27.717Z,101511.90
2023-05-19T05:28:08.511Z,101508.40
2023-05-19T05:30:45.937Z,101509.23
2023-05-19T05:34:08.068Z,101508.63
2023-05-19T05:36:43.702Z,101513.82
2023-05-19T05:39:14.547Z,101524.01
2023-05-19T05:42:16.380Z,101526.54
2023-05-19T05:44:53.484Z,101527.33
2023-05-19T05:47:25.661Z,101525.01
2023-05-19T05:50:00.452Z,101523.89
2023-05-19T05:52:34.336Z,101521.12
2023-05-19T05:55:11.183Z,101522.23
2023-05-19T05:58:04.087Z,101519.88
2023-05-19T06:00:46.246Z,101525.16
2023-05-19T06:04:41.436Z,101532.06
2023-05-19T06:07:36.910Z,101534.84
2023-05-19T06:10:21.583Z,101537.20
2023-05-19T06:13:30.604Z,101537.10
2023-05-19T06:16:01.948Z,101543.58
2023-05-19T06:19:18.913Z,101546.26
2023-05-19T06:21:49.869Z,101547.42
2023-05-19T06:24:29.052Z,101540.72
2023-05-19T06:27:22.992Z,101541.96
2023-05-19T06:30:09.275Z,101544.98
2023-05-19T06:32:49.886Z,101545.51
2023-05-19T06:35:48.420Z,101545.02
2023-05-19T06:38:18.922Z,101547.69
2023-05-19T06:40:49.649Z,101544.58
2023-05-19T06:43:37.603Z,101540.15
2023-05-19T06:46:07.111Z,101536.30
2023-05-19T06:48:51.569Z,101536.23
2023-05-19T06:51:25.880Z,101533.36
2023-05-19T06:54:24.110Z,101532.54
2023-05-19T06:56:53.642Z,101533.15
2023-05-19T06:59:46.864Z,101534.45
2023-05-19T07:02:17.328Z,101537.36
2023-05-19T07:05:30.935Z,101540.52
2023-05-19T07:08:32.005Z,101547.69
2023-05-19T07:11:08.341Z,101547.48
2023-05-19T07:13:51.675Z,101547.41
2023-05-19T07:16:28.242Z,101548.95
2023-05-19T07:18:59.715Z,101552.30
2023-05-19T07:21:34.793Z,101552.27
2023-05-19T07:24:07.062Z,101544.10
2023-05-19T07:26:46.009Z,101546.05
2023-05-19T07:29:27.906Z,101548.11
2023-05-19T07:32:05.290Z,101548.16
2023-05-19T07:34:38.432Z,101548.09
2023-05-19T07:37:20.445Z,101548.67
2023-05-19T07:39:51.075Z,101550.80
2023-05-19T07:42:37.195Z,101551.66
2023-05-19T07:45:08.704Z,101553.11
2023-05-19T07:47:41.727Z,101549.52
2023-05-19T07:50:21.323Z,101549.27
2023-05-19T07:52:50.935Z,101552.98
2023-05-19T07:55:26.458Z,101549.50
2023-05-19T07:58:03.220Z,101558.80
2023-05-19T08:00:35.755Z,101557.83
2023-05-19T08:03:22.528Z,101558.11
2023-05-19T08:06:15.672Z,101559.34
2023-05-19T08:08:46.646Z,101560.73
2023-05-19T08:11:25.303Z,101560.88
2023-05-19T08:13:55.836Z,101562.86
2023-05-19T08:16:26.371Z,101564.95
2023-05-19T08:19:27.544Z,101563.58
2023-05-19T08:22:10.753Z,101559.11
2023-05-19T08:24:43.470Z,101565.95
2023-05-19T08:27:14.256Z,101564.43
2023-05-19T08:29:49.184Z,101563.86
2023-05-19T08:32:23.901Z,101570.98
2023-05-19T08:35:00.759Z,101573.13
2023-05-19T08:37:34.006Z,101575.36
2023-05-19T08:40:20.738Z,101573.16
2023-05-19T08:42:51.938Z,101572.05
2023-05-19T08:45:43.876Z,101574.89
2023-05-19T08:48:17.442Z,101575.34
2023-05-19T08:51:32.172Z,101574.10
2023-05-19T08:55:10.678Z,101575.48
2023-05-19T08:57:52.346Z,101571.61
2023-05-19T09:00:25.556Z,101568.34
2023-05-19T09:03:18.050Z,101567.38
2023-05-19T09:06:52.304Z,101565.41
2023-05-19T09:10:20.035Z,101567.00
2023-05-19T09:33:08.871Z,101551.77
2023-05-19T09:38:52.035Z,101542.06
2023-05-19T09:41:25.351Z,101542.42
2023-05-19T09:43:59.122Z,101545.98
2023-05-19T09:46:30.481Z,101539.89
2023-05-19T09:49:10.253Z,101538.73
2023-05-19T09:51:42.232Z,101539.25
2023-05-19T09:54:18.234Z,101532.89
2023-05-19T09:57:03.894Z,101534.56
2023-05-19T09:59:35.004Z,101530.17
2023-05-19T10:04:56.061Z,101533.86
2023-05-19T10:07:28.838Z,101521.56
2023-05-19T10:10:01.970Z,101527.02
2023-05-19T10:12:34.558Z,101532.39
2023-05-19T10:15:54.286Z,101526.58
2023-05-19T10:18:41.771Z,101517.84
2023-05-19T10:21:18.601Z,101512.09
2023-05-19T10:23:48.989Z,101517.78
2023-05-19T10:26:31.184Z,101519.30
2023-05-19T10:29:18.234Z,101519.84
2023-05-19T10:31:52.702Z,101516.75
2023-05-19T10:34:50.630Z,101515.04
2023-05-19T10:37:35.151Z,101501.82
2023-05-19T10:40:21.398Z,101501.13
2023-05-19T10:43:42.040Z,101505.34
2023-05-19T10:46:14.289Z,101495.11
2023-05-19T10:48:47.220Z,101492.77
2023-05-19T10:51:40.349Z,101490.59
2023-05-19T10:54:40.946Z,101489.00
2023-05-19T10:57:22.129Z,101486.64
2023-05-19T10:59:54.506Z,101483.36
2023-05-19T11:02:44.314Z,101493.45
2023-05-19T11:05:21.466Z,101499.29
2023-05-19T11:08:23.433Z,101496.15
2023-05-19T11:10:57.472Z,101497.10
2023-05-19T11:13:49.873Z,101495.26
2023-05-19T11:17:12.294Z,101496.20
2023-05-19T11:19:56.492Z,101490.59
2023-05-19T11:22:36.174Z,101482.30
2023-05-19T11:25:11.766Z,101472.58
2023-05-19T11:27:57.675Z,101473.84
2023-05-19T11:30:40.468Z,101474.07
2023-05-19T11:33:40.385Z,101471.38
2023-05-19T12:31:18.223Z,101603.38
2023-05-19T12:33:54.552Z,101633.86
2023-05-19T12:36:26.670Z,101653.74
2023-05-19T12:39:05.212Z,101663.00
2023-05-19T12:43:50.553Z,101658.45
2023-05-19T12:47:15.354Z,101645.70
2023-05-19T12:51:13.551Z,101624.58
2023-05-19T12:54:08.303Z,101588.36
2023-05-19T12:59:47.755Z,101510.39
2023-05-19T13:02:26.532Z,101496.45
2023-05-19T13:04:58.793Z,101503.23
2023-05-19T13:07:28.637Z,101507.70
2023-05-19T13:09:56.904Z,101503.69
2023-05-19T13:12:25.656Z,101499.35
2023-05-19T13:14:55.668Z,101496.65
2023-05-19T13:17:26.335Z,101495.69
2023-05-19T13:19:54.529Z,101494.92
2023-05-19T13:22:26.737Z,101491.73
2023-05-19T13:24:58.337Z,101485.39
2023-05-19T13:27:26.656Z,101483.34
2023-05-19T13:29:54.671Z,101487.44
2023-05-19T13:32:28.277Z,101490.81
2023-05-19T13:35:00.581Z,101509.18
2023-05-19T13:37:29.683Z,101505.83
2023-05-19T13:40:01.115Z,101509.38
2023-05-19T13:42:29.321Z,101511.11
2023-05-19T13:44:57.853Z,101513.38
2023-05-19T13:47:30.253Z,101510.98
2023-05-19T13:49:58.466Z,101515.27
2023-05-19T13:52:30.284Z,101514.45
2023-05-19T13:55:09.872Z,101508.86
2023-05-19T13:57:38.421Z,101516.63
2023-05-19T14:00:07.728Z,101519.76
2023-05-19T14:02:44.517Z,101515.67
2023-05-19T14:05:14.339Z,101510.37
2023-05-19T14:07:42.476Z,101507.39
2023-05-19T14:10:10.971Z,101508.48
2023-05-19T14:12:55.066Z,101515.42
2023-05-19T14:15:28.950Z,101514.15
2023-05-19T14:17:58.519Z,101515.08
2023-05-19T14:20:29.161Z,101523.42
2023-05-19T14:22:57.793Z,101536.08
2023-05-19T14:25:25.779Z,101543.20
2023-05-19T14:27:55.567Z,101541.84
2023-05-19T14:30:23.661Z,101548.81
2023-05-19T14:32:52.522Z,101547.91
2023-05-19T14:35:22.287Z,101550.70
2023-05-19T14:37:51.081Z,101550.95
2023-05-19T14:40:20.145Z,101553.64
2023-05-19T14:42:48.250Z,101558.83
2023-05-19T14:45:16.520Z,101562.95
2023-05-19T14:47:44.657Z,101565.23
2023-05-19T14:50:12.882Z,101557.23
2023-05-19T14:52:40.919Z,101562.73
2023-05-19T14:55:10.838Z,101563.38
2023-05-19T14:57:39.061Z,101568.79
2023-05-19T15:00:09.847Z,101572.94
2023-05-19T15:02:38.289Z,101572.84
2023-05-19T15:05:08.134Z,101570.56
2023-05-19T15:07:47.377Z,101572.70
2023-05-19T15:10:17.469Z,101574.65
2023-05-19T15:12:47.801Z,101570.91
2023-05-19T15:15:18.019Z,101566.21
2023-05-19T15:17:47.445Z,101562.44
2023-05-19T15:20:15.820Z,101559.16
2023-05-19T15:22:44.656Z,101554.11
2023-05-19T15:25:15.345Z,101550.28
2023-05-19T15:27:45.759Z,101546.30
2023-05-19T15:30:16.431Z,101554.67
2023-05-19T15:32:44.706Z,101556.02
2023-05-19T15:35:12.902Z,101559.80
2023-05-19T15:37:41.060Z,101571.35
2023-05-19T15:40:10.644Z,101574.11
2023-05-19T15:42:42.959Z,101574.81
2023-05-19T15:45:11.118Z,101576.33
2023-05-19T15:47:41.660Z,101574.83
2023-05-19T15:50:12.117Z,101579.33
2023-05-19T15:52:48.186Z,101580.13
2023-05-19T15:55:36.536Z,101583.17
2023-05-19T15:58:04.521Z,101587.33
2023-05-19T16:00:33.063Z,101584.86
2023-05-19T16:03:01.850Z,101593.36
2023-05-19T16:05:56.746Z,101597.65
2023-05-19T16:08:45.710Z,101592.94
2023-05-19T16:11:31.076Z,101588.44
2023-05-19T16:13:59.593Z,101594.48
2023-05-19T16:16:28.169Z,101597.58
2023-05-19T16:19:23.674Z,101598.41
2023-05-19T16:22:11.570Z,101605.21
2023-05-19T16:24:40.517Z,101612.32
2023-05-19T16:27:09.217Z,101610.44
2023-05-19T16:29:42.168Z,101612.19
2023-05-19T16:32:18.602Z,101611.64
2023-05-19T16:34:47.946Z,101616.11
2023-05-19T16:37:16.033Z,101618.83
2023-05-19T16:39:47.812Z,101616.21
2023-05-19T16:42:16.255Z,101618.59
2023-05-19T16:44:44.642Z,101619.34
2023-05-19T16:47:14.291Z,101621.13
2023-05-19T16:49:43.713Z,101624.08
2023-05-19T16:52:13.058Z,101626.73
2023-05-19T16:54:43.386Z,101629.89
2023-05-19T16:57:16.023Z,101633.42
2023-05-19T16:59:45.474Z,101640.86
2023-05-19T17:02:14.675Z,101640.03
2023-05-19T17:04:42.986Z,101637.33
2023-05-19T17:07:17.824Z,101635.13
2023-05-19T17:09:48.914Z,101633.37
2023-05-19T17:12:20.327Z,101635.92
2023-05-19T17:14:50.024Z,101633.14
2023-05-19T17:17:21.076Z,101637.08
2023-05-19T17:19:50.514Z,101638.92
2023-05-19T17:22:19.483Z,101642.79
2023-05-19T17:24:49.888Z,101644.19
2023-05-19T17:27:18.437Z,101647.48
2023-05-19T17:29:46.632Z,101643.21
2023-05-19T17:32:14.757Z,101642.17
2023-05-19T17:34:43.562Z,101639.61
2023-05-19T17:37:17.149Z,101635.11
2023-05-19T17:39:45.569Z,101634.98
2023-05-19T17:42:13.808Z,101632.09
2023-05-19T17:44:42.703Z,101631.58
2023-05-19T17:47:10.821Z,101642.57
2023-05-19T17:49:40.280Z,101641.48
2023-05-19T17:52:09.658Z,101643.62
2023-05-19T17:54:49.033Z,101647.49
2023-05-19T17:57:21.370Z,101645.36
2023-05-19T17:59:50.211Z,101646.15
2023-05-19T18:02:18.915Z,101646.92
2023-05-19T18:04:49.132Z,101647.38
2023-05-19T18:07:18.120Z,101645.60
2023-05-19T18:09:47.506Z,101642.89
2023-05-19T18:12:15.811Z,101645.88
2023-05-19T18:14:47.040Z,101657.00
2023-05-19T18:17:18.603Z,101683.00
2023-05-19T18:19:50.119Z,101685.32
2023-05-19T18:22:43.210Z,101682.13
2023-05-19T18:25:11.521Z,101662.75
2023-05-19T18:27:43.792Z,101665.02
2023-05-19T18:30:12.901Z,101666.37
2023-05-19T18:32:41.913Z,101670.54
2023-05-19T18:35:10.523Z,101677.60
2023-05-19T18:37:39.705Z,101689.61
2023-05-19T18:40:10.368Z,101695.34
2023-05-19T18:42:40.896Z,101698.60
2023-05-19T18:45:11.171Z,101704.13
2023-05-19T18:47:40.572Z,101703.86
2023-05-19T18:50:08.986Z,101695.45
2023-05-19T18:52:37.210Z,101690.98
2023-05-19T18:55:06.716Z,101689.83
2023-05-19T18:57:35.115Z,101693.40
2023-05-19T19:00:04.326Z,101703.80
2023-05-19T19:02:32.562Z,101706.26
2023-05-19T19:05:04.441Z,101703.58
2023-05-19T19:07:42.961Z,101705.31
2023-05-19T19:10:11.983Z,101702.29
2023-05-19T19:12:40.329Z,101706.25
2023-05-19T19:15:09.390Z,101711.34
2023-05-19T19:17:40.586Z,101712.71
2023-05-19T19:20:09.627Z,101719.77
2023-05-19T19:22:38.107Z,101722.86
2023-05-19T19:25:07.683Z,101719.45
2023-05-19T19:27:36.798Z,101718.54
2023-05-19T19:30:08.191Z,101719.98
2023-05-19T19:32:37.647Z,101716.59
2023-05-19T19:35:06.291Z,101720.27
2023-05-19T19:37:35.658Z,101722.89
2023-05-19T19:40:04.706Z,101716.90
2023-05-19T19:42:33.243Z,101714.29
2023-05-19T19:45:02.987Z,101710.83
2023-05-19T19:47:32.289Z,101708.52
2023-05-19T19:50:04.941Z,101705.50
2023-05-19T19:52:33.412Z,101704.95
2023-05-19T19:55:03.096Z,101704.06
2023-05-19T19:57:33.537Z,101704.58
2023-05-19T20:00:08.048Z,101705.75
2023-05-19T20:02:43.140Z,101709.89
2023-05-19T20:05:20.636Z,101712.98
2023-05-19T20:07:49.800Z,101712.37
2023-05-19T20:10:19.820Z,101710.08
2023-05-19T20:12:48.049Z,101705.41
2023-05-19T20:15:16.463Z,101704.27
2023-05-19T20:17:45.253Z,101700.98
2023-05-19T20:20:16.570Z,101697.14
2023-05-19T20:22:45.650Z,101693.30
2023-05-19T20:25:15.876Z,101693.42
2023-05-19T20:27:47.384Z,101694.52
2023-05-19T20:30:17.802Z,101698.94
2023-05-19T20:32:51.994Z,101700.67
2023-05-19T20:35:21.881Z,101704.05
2023-05-19T20:37:50.007Z,101705.05
2023-05-19T20:40:18.337Z,101709.23
2023-05-19T20:43:04.531Z,101709.10
2023-05-19T20:45:33.133Z,101705.95
2023-05-19T20:48:03.227Z,101703.14
2023-05-19T20:50:32.988Z,101706.89
2023-05-19T20:53:02.679Z,101702.48
2023-05-19T20:55:31.104Z,101701.41
2023-05-19T20:57:59.532Z,101695.40
2023-05-19T21:00:29.672Z,101697.19
2023-05-19T21:02:59.009Z,101697.65
2023-05-19T21:05:27.492Z,101700.91
2023-05-19T21:07:56.651Z,101694.27
2023-05-19T21:10:25.480Z,101697.05
2023-05-19T21:12:54.518Z,101696.92
2023-05-19T21:15:24.146Z,101699.66
2023-05-19T21:17:52.390Z,101703.57
2023-05-19T21:20:20.920Z,101706.38
2023-05-19T21:22:49.069Z,101708.10
2023-05-19T21:25:17.112Z,101709.69
2023-05-19T21:27:45.914Z,101708.05
2023-05-19T21:30:14.193Z,101703.84
2023-05-19T21:32:42.965Z,101702.67
2023-05-19T21:35:11.790Z,101698.91
2023-05-19T21:37:39.861Z,101698.94
2023-05-19T21:40:09.217Z,101699.92
2023-05-19T21:42:37.454Z,101700.27
2023-05-19T21:45:10.816Z,101693.71
2023-05-19T21:47:48.624Z,101692.45
2023-05-19T21:50:25.213Z,101691.06
2023-05-19T21:53:07.398Z,101687.09
2023-05-19T21:55:44.394Z,101689.58
2023-05-19T21:58:12.696Z,101693.88
2023-05-19T22:00:41.110Z,101690.85
2023-05-19T22:03:09.623Z,101687.25
2023-05-19T22:05:39.184Z,101683.77
2023-05-19T22:08:08.081Z,101679.17
2023-05-19T22:10:36.833Z,101681.36
2023-05-19T22:13:05.348Z,101677.39
2023-05-19T22:15:33.534Z,101672.66
2023-05-19T22:18:01.800Z,101673.22
2023-05-19T22:20:30.027Z,101667.36
2023-05-19T22:22:58.885Z,101663.73
2023-05-19T22:25:34.961Z,101657.23
2023-05-19T22:28:08.548Z,101654.98
2023-05-19T22:30:42.503Z,101654.54
2023-05-19T22:33:25.576Z,101659.13
2023-05-19T22:35:54.275Z,101658.17
2023-05-19T22:38:29.623Z,101654.88
2023-05-19T22:41:00.943Z,101660.22
2023-05-19T22:43:41.513Z,101660.98
2023-05-19T22:46:21.726Z,101663.89
2023-05-19T22:48:55.187Z,101656.93
2023-05-19T22:51:24.262Z,101645.83
2023-05-19T22:53:56.947Z,101643.45
2023-05-19T22:56:31.588Z,101638.52
2023-05-19T22:59:21.137Z,101635.33
2023-05-19T23:01:51.644Z,101639.02
2023-05-19T23:04:21.071Z,101632.73
2023-05-19T23:06:50.589Z,101637.60
2023-05-19T23:09:19.176Z,101634.10
2023-05-19T23:11:51.568Z,101639.77
2023-05-19T23:14:25.557Z,101635.35
2023-05-19T23:16:54.092Z,101638.93
2023-05-19T23:19:24.013Z,101637.27
2023-05-19T23:21:52.632Z,101633.91
2023-05-19T23:25:05.889Z,101629.75
2023-05-19T23:27:36.640Z,101631.48
2023-05-19T23:30:06.013Z,101630.48
2023-05-19T23:32:34.852Z,101636.71
2023-05-19T23:35:16.117Z,101635.38
2023-05-19T23:37:56.342Z,101632.21
2023-05-19T23:40:24.835Z,101626.16
2023-05-19T23:42:54.072Z,101627.80
2023-05-19T23:45:23.628Z,101631.08
2023-05-19T23:47:53.571Z,101628.60
2023-05-19T23:50:24.330Z,101628.86
2023-05-19T23:53:01.422Z,101625.17
2023-05-19T23:55:31.806Z,101631.58
2023-05-19T23:58:05.506Z,101637.95
